createdAt,value
2019-03-22T00:01:07.000Z,26
2019-03-22T00:02:07.000Z,26
2019-03-22T00:03:07.000Z,26
2019-03-22T00:04:07.000Z,26
2019-03-22T00:05:07.000Z,26
2019-03-22T00:06:07.000Z,26
2019-03-22T00:07:07.000Z,26
2019-03-22T00:08:07.000Z,26
2019-03-22T00:09:07.000Z,26
2019-03-22T00:10:07.000Z,26
2019-03-22T00:11:07.000Z,26
2019-03-22T00:12:07.000Z,26
2019-03-22T00:13:07.000Z,26
2019-03-22T00:14:07.000Z,26
2019-03-22T00:15:07.000Z,26
2019-03-22T00:16:07.000Z,26
2019-03-22T00:17:07.000Z,26
2019-03-22T00:18:07.000Z,26
2019-03-22T00:19:07.000Z,26
2019-03-22T00:20:07.000Z,26
2019-03-22T00:21:07.000Z,26
2019-03-22T00:22:07.000Z,26
2019-03-22T00:24:07.000Z,26
2019-03-22T00:25:07.000Z,26
2019-03-22T00:26:07.000Z,26
2019-03-22T00:27:07.000Z,26
2019-03-22T00:28:07.000Z,26
2019-03-22T00:30:07.000Z,26
2019-03-22T00:31:07.000Z,26
2019-03-22T00:32:07.000Z,26
2019-03-22T00:33:07.000Z,26
2019-03-22T00:34:07.000Z,26
2019-03-22T00:35:07.000Z,26
2019-03-22T00:36:07.000Z,26
2019-03-22T00:37:07.000Z,26
2019-03-22T00:38:07.000Z,26
2019-03-22T00:39:07.000Z,26
2019-03-22T00:40:07.000Z,26
2019-03-22T00:41:07.000Z,26
2019-03-22T00:42:07.000Z,26
2019-03-22T00:43:07.000Z,26
2019-03-22T00:44:07.000Z,26
2019-03-22T00:45:07.000Z,26
2019-03-22T00:46:07.000Z,26
2019-03-22T00:47:07.000Z,26
2019-03-22T00:49:07.000Z,26
2019-03-22T00:50:07.000Z,26
2019-03-22T00:51:07.000Z,26
2019-03-22T00:52:07.000Z,26
2019-03-22T00:54:07.000Z,26
2019-03-22T00:56:07.000Z,26
2019-03-22T00:57:07.000Z,26
2019-03-22T00:58:07.000Z,26
2019-03-22T00:59:07.000Z,26
2019-03-22T01:00:07.000Z,26
2019-03-22T01:01:07.000Z,26
2019-03-22T01:02:07.000Z,26
2019-03-22T01:03:07.000Z,26
2019-03-22T01:04:07.000Z,26
2019-03-22T01:05:07.000Z,26
2019-03-22T01:06:07.000Z,26
2019-03-22T01:07:07.000Z,26
2019-03-22T01:08:07.000Z,26
2019-03-22T01:09:07.000Z,26
2019-03-22T01:10:07.000Z,26
2019-03-22T01:11:07.000Z,26
2019-03-22T01:12:07.000Z,26
2019-03-22T01:13:07.000Z,26
2019-03-22T01:14:07.000Z,26
2019-03-22T01:15:07.000Z,26
2019-03-22T01:16:07.000Z,26
2019-03-22T01:17:07.000Z,26
2019-03-22T01:18:07.000Z,26
2019-03-22T01:19:07.000Z,26
2019-03-22T01:21:07.000Z,26
2019-03-22T01:22:07.000Z,26
2019-03-22T01:23:07.000Z,26
2019-03-22T01:25:07.000Z,26
2019-03-22T01:26:07.000Z,26
2019-03-22T01:27:07.000Z,26
2019-03-22T01:28:07.000Z,26
2019-03-22T01:30:07.000Z,26
2019-03-22T01:31:07.000Z,26
2019-03-22T01:32:07.000Z,26
2019-03-22T01:34:07.000Z,26
2019-03-22T01:35:07.000Z,26
2019-03-22T01:36:07.000Z,26
2019-03-22T01:38:07.000Z,26
2019-03-22T01:39:08.000Z,26
2019-03-22T01:40:08.000Z,26
2019-03-22T01:41:08.000Z,26
2019-03-22T01:42:08.000Z,26
2019-03-22T01:43:08.000Z,26
2019-03-22T01:44:08.000Z,26
2019-03-22T01:45:08.000Z,26
2019-03-22T01:47:08.000Z,26
2019-03-22T01:48:08.000Z,26
2019-03-22T01:49:08.000Z,26
2019-03-22T01:50:08.000Z,26
2019-03-22T01:51:08.000Z,26
2019-03-22T01:53:08.000Z,26
2019-03-22T01:54:08.000Z,26
2019-03-22T01:56:08.000Z,26
2019-03-22T01:58:08.000Z,26
2019-03-22T02:00:08.000Z,26
2019-03-22T02:01:08.000Z,26
2019-03-22T02:02:08.000Z,26
2019-03-22T02:03:08.000Z,26
2019-03-22T02:04:08.000Z,26
2019-03-22T02:05:08.000Z,26
2019-03-22T02:06:08.000Z,26
2019-03-22T02:07:08.000Z,26
2019-03-22T02:08:08.000Z,26
2019-03-22T02:09:08.000Z,26
2019-03-22T02:10:08.000Z,26
2019-03-22T02:12:08.000Z,26
2019-03-22T02:13:08.000Z,26
2019-03-22T02:14:08.000Z,26
2019-03-22T02:15:08.000Z,26
2019-03-22T02:16:08.000Z,26
2019-03-22T02:17:08.000Z,26
2019-03-22T02:18:08.000Z,26
2019-03-22T02:19:08.000Z,26
2019-03-22T02:20:08.000Z,26
2019-03-22T02:21:08.000Z,26
2019-03-22T02:22:08.000Z,26
2019-03-22T02:24:08.000Z,26
2019-03-22T02:25:08.000Z,26
2019-03-22T02:27:08.000Z,26
2019-03-22T02:28:08.000Z,26
2019-03-22T02:29:08.000Z,26
2019-03-22T02:30:08.000Z,26
2019-03-22T02:31:08.000Z,26
2019-03-22T02:32:08.000Z,26
2019-03-22T02:34:08.000Z,26
2019-03-22T02:35:08.000Z,26
2019-03-22T02:36:08.000Z,26
2019-03-22T02:37:08.000Z,26
2019-03-22T02:38:08.000Z,26
2019-03-22T02:39:08.000Z,26
2019-03-22T02:40:08.000Z,26
2019-03-22T02:42:08.000Z,26
2019-03-22T02:43:07.000Z,26
2019-03-22T02:44:07.000Z,26
2019-03-22T02:45:07.000Z,26
2019-03-22T02:46:07.000Z,26
2019-03-22T02:47:07.000Z,26
2019-03-22T02:48:07.000Z,26
2019-03-22T02:49:07.000Z,26
2019-03-22T02:50:07.000Z,26
2019-03-22T02:51:07.000Z,26
2019-03-22T02:52:07.000Z,26
2019-03-22T02:53:07.000Z,26
2019-03-22T02:54:07.000Z,26
2019-03-22T02:55:07.000Z,26
2019-03-22T02:56:07.000Z,26
2019-03-22T02:57:07.000Z,26
2019-03-22T02:58:07.000Z,26
2019-03-22T02:59:07.000Z,26
2019-03-22T03:00:07.000Z,26
2019-03-22T03:01:07.000Z,26
2019-03-22T03:02:07.000Z,26
2019-03-22T03:03:07.000Z,26
2019-03-22T03:04:07.000Z,26
2019-03-22T03:05:07.000Z,26
2019-03-22T03:07:07.000Z,26
2019-03-22T03:08:07.000Z,26
2019-03-22T03:09:07.000Z,26
2019-03-22T03:10:07.000Z,26
2019-03-22T03:11:07.000Z,26
2019-03-22T03:12:07.000Z,26
2019-03-22T03:13:07.000Z,26
2019-03-22T03:14:07.000Z,26
2019-03-22T03:15:07.000Z,26
2019-03-22T03:16:07.000Z,26
2019-03-22T03:17:07.000Z,26
2019-03-22T03:18:07.000Z,26
2019-03-22T03:19:07.000Z,26
2019-03-22T03:21:07.000Z,26
2019-03-22T03:23:07.000Z,26
2019-03-22T03:24:07.000Z,26
2019-03-22T03:25:07.000Z,26
2019-03-22T03:26:07.000Z,26
2019-03-22T03:27:07.000Z,26
2019-03-22T03:29:07.000Z,26
2019-03-22T03:30:07.000Z,26
2019-03-22T03:31:07.000Z,26
2019-03-22T03:32:07.000Z,26
2019-03-22T03:33:07.000Z,26
2019-03-22T03:34:07.000Z,26
2019-03-22T03:35:07.000Z,26
2019-03-22T03:36:07.000Z,26
2019-03-22T03:37:07.000Z,26
2019-03-22T03:38:07.000Z,26
2019-03-22T03:39:07.000Z,26
2019-03-22T03:40:07.000Z,26
2019-03-22T03:42:07.000Z,26
2019-03-22T03:43:07.000Z,26
2019-03-22T03:45:07.000Z,26
2019-03-22T03:46:07.000Z,26
2019-03-22T03:47:08.000Z,26
2019-03-22T03:48:08.000Z,26
2019-03-22T03:49:08.000Z,26
2019-03-22T03:51:08.000Z,26
2019-03-22T03:52:08.000Z,26
2019-03-22T03:53:08.000Z,26
2019-03-22T03:54:08.000Z,26
2019-03-22T03:55:08.000Z,26
2019-03-22T03:56:08.000Z,26
2019-03-22T03:57:08.000Z,26
2019-03-22T03:58:08.000Z,26
2019-03-22T03:59:08.000Z,26
2019-03-22T04:00:08.000Z,26
2019-03-22T04:01:08.000Z,26
2019-03-22T04:02:08.000Z,26
2019-03-22T04:03:08.000Z,26
2019-03-22T04:04:08.000Z,26
2019-03-22T04:05:08.000Z,26
2019-03-22T04:06:08.000Z,26
2019-03-22T04:07:08.000Z,26
2019-03-22T04:08:08.000Z,26
2019-03-22T04:09:08.000Z,26
2019-03-22T04:10:08.000Z,26
2019-03-22T04:11:08.000Z,26
2019-03-22T04:12:08.000Z,26
2019-03-22T04:13:08.000Z,26
2019-03-22T04:14:08.000Z,26
2019-03-22T04:15:08.000Z,26
2019-03-22T04:16:08.000Z,26
2019-03-22T04:17:08.000Z,26
2019-03-22T04:18:08.000Z,26
2019-03-22T04:19:08.000Z,26
2019-03-22T04:20:08.000Z,26
2019-03-22T04:21:08.000Z,26
2019-03-22T04:22:08.000Z,27
2019-03-22T04:23:08.000Z,27
2019-03-22T04:24:08.000Z,28
2019-03-22T04:25:08.000Z,28
2019-03-22T04:26:08.000Z,28
2019-03-22T04:27:08.000Z,29
2019-03-22T04:28:08.000Z,29
2019-03-22T04:29:08.000Z,29
2019-03-22T04:31:08.000Z,29
2019-03-22T04:32:08.000Z,28
2019-03-22T04:34:08.000Z,28
2019-03-22T04:36:08.000Z,28
2019-03-22T04:37:08.000Z,28
2019-03-22T04:39:08.000Z,28
2019-03-22T04:40:08.000Z,28
2019-03-22T04:41:08.000Z,28
2019-03-22T04:42:08.000Z,28
2019-03-22T04:43:08.000Z,28
2019-03-22T04:44:08.000Z,28
2019-03-22T04:45:08.000Z,28
2019-03-22T04:46:08.000Z,28
2019-03-22T04:47:08.000Z,28
2019-03-22T04:48:08.000Z,28
2019-03-22T04:49:08.000Z,28
2019-03-22T04:50:07.000Z,27
2019-03-22T04:51:07.000Z,28
2019-03-22T04:52:07.000Z,28
2019-03-22T04:53:07.000Z,27
2019-03-22T04:54:07.000Z,27
2019-03-22T04:55:07.000Z,27
2019-03-22T04:56:07.000Z,27
2019-03-22T04:57:07.000Z,27
2019-03-22T04:58:07.000Z,27
2019-03-22T04:59:07.000Z,27
2019-03-22T05:00:07.000Z,27
2019-03-22T05:01:07.000Z,27
2019-03-22T05:02:07.000Z,27
2019-03-22T05:03:07.000Z,27
2019-03-22T05:04:07.000Z,27
2019-03-22T05:05:07.000Z,27
2019-03-22T05:06:07.000Z,27
2019-03-22T05:07:07.000Z,27
2019-03-22T05:08:07.000Z,27
2019-03-22T05:10:07.000Z,27
2019-03-22T05:11:07.000Z,27
2019-03-22T05:12:07.000Z,27
2019-03-22T05:14:07.000Z,27
2019-03-22T05:15:07.000Z,27
2019-03-22T05:17:07.000Z,27
2019-03-22T05:18:07.000Z,27
2019-03-22T05:19:07.000Z,27
2019-03-22T05:20:07.000Z,27
2019-03-22T05:21:07.000Z,27
2019-03-22T05:22:07.000Z,27
2019-03-22T05:23:07.000Z,27
2019-03-22T05:24:07.000Z,28
2019-03-22T05:26:07.000Z,28
2019-03-22T05:27:07.000Z,28
2019-03-22T05:28:07.000Z,28
2019-03-22T05:29:07.000Z,28
2019-03-22T05:30:07.000Z,28
2019-03-22T05:31:07.000Z,29
2019-03-22T05:32:07.000Z,29
2019-03-22T05:33:07.000Z,29
2019-03-22T05:34:07.000Z,29
2019-03-22T05:35:07.000Z,29
2019-03-22T05:36:07.000Z,29
2019-03-22T05:37:07.000Z,30
2019-03-22T05:38:07.000Z,30
2019-03-22T05:39:07.000Z,30
2019-03-22T05:40:07.000Z,30
2019-03-22T05:41:07.000Z,30
2019-03-22T05:42:07.000Z,30
2019-03-22T05:43:07.000Z,30
2019-03-22T05:44:07.000Z,30
2019-03-22T05:45:07.000Z,30
2019-03-22T05:46:07.000Z,30
2019-03-22T05:47:07.000Z,29
2019-03-22T05:48:07.000Z,29
2019-03-22T05:49:07.000Z,30
2019-03-22T05:51:07.000Z,29
2019-03-22T05:52:07.000Z,29
2019-03-22T05:54:08.000Z,29
2019-03-22T05:56:08.000Z,29
2019-03-22T05:57:08.000Z,29
2019-03-22T05:58:08.000Z,29
2019-03-22T05:59:08.000Z,29
2019-03-22T06:00:08.000Z,29
2019-03-22T06:01:08.000Z,29
2019-03-22T06:02:08.000Z,29
2019-03-22T06:03:08.000Z,29
2019-03-22T06:04:08.000Z,29
2019-03-22T06:05:08.000Z,29
2019-03-22T06:06:08.000Z,29
2019-03-22T06:07:08.000Z,28
2019-03-22T06:08:08.000Z,29
2019-03-22T06:10:08.000Z,28
2019-03-22T06:11:08.000Z,28
2019-03-22T06:12:08.000Z,28
2019-03-22T06:13:08.000Z,28
2019-03-22T06:14:08.000Z,28
2019-03-22T06:15:08.000Z,28
2019-03-22T06:16:08.000Z,28
2019-03-22T06:17:08.000Z,28
2019-03-22T06:18:08.000Z,28
2019-03-22T06:19:08.000Z,29
2019-03-22T06:20:08.000Z,29
2019-03-22T06:22:08.000Z,29
2019-03-22T06:23:08.000Z,29
2019-03-22T06:24:08.000Z,29
2019-03-22T06:25:08.000Z,29
2019-03-22T06:27:08.000Z,29
2019-03-22T06:28:08.000Z,29
2019-03-22T06:29:08.000Z,29
2019-03-22T06:30:08.000Z,29
2019-03-22T06:32:08.000Z,28
2019-03-22T06:34:08.000Z,28
2019-03-22T06:35:08.000Z,28
2019-03-22T06:37:08.000Z,28
2019-03-22T06:38:08.000Z,28
2019-03-22T06:39:08.000Z,28
2019-03-22T06:41:08.000Z,28
2019-03-22T06:42:08.000Z,28
2019-03-22T06:43:08.000Z,28
2019-03-22T06:44:08.000Z,28
2019-03-22T06:45:08.000Z,28
2019-03-22T06:46:08.000Z,28
2019-03-22T06:47:08.000Z,27
2019-03-22T06:48:08.000Z,27
2019-03-22T06:49:08.000Z,27
2019-03-22T06:50:08.000Z,27
2019-03-22T06:51:08.000Z,27
2019-03-22T06:52:08.000Z,27
2019-03-22T06:53:08.000Z,27
2019-03-22T06:54:08.000Z,27
2019-03-22T06:55:08.000Z,27
2019-03-22T06:56:08.000Z,27
2019-03-22T06:57:08.000Z,27
2019-03-22T06:58:07.000Z,27
2019-03-22T07:00:07.000Z,27
2019-03-22T07:01:07.000Z,27
2019-03-22T07:02:07.000Z,27
2019-03-22T07:03:07.000Z,28
2019-03-22T07:04:07.000Z,28
2019-03-22T07:05:07.000Z,28
2019-03-22T07:06:07.000Z,28
2019-03-22T07:08:07.000Z,28
2019-03-22T07:09:07.000Z,28
2019-03-22T07:10:07.000Z,27
2019-03-22T07:11:07.000Z,27
2019-03-22T07:14:53.000Z,27
2019-03-22T07:15:53.000Z,27
2019-03-22T07:16:53.000Z,27
2019-03-22T07:17:53.000Z,27
2019-03-22T07:18:53.000Z,27
2019-03-22T07:19:53.000Z,27
2019-03-22T07:20:53.000Z,27
2019-03-22T07:21:53.000Z,27
2019-03-22T07:22:53.000Z,27
2019-03-22T07:23:53.000Z,27
2019-03-22T07:25:53.000Z,27
2019-03-22T07:26:53.000Z,27
2019-03-22T07:27:53.000Z,27
2019-03-22T07:28:53.000Z,27
2019-03-22T07:29:53.000Z,27
2019-03-22T07:30:53.000Z,27
2019-03-22T07:31:53.000Z,27
2019-03-22T07:35:39.000Z,27
2019-03-22T07:36:39.000Z,27
2019-03-22T07:37:39.000Z,27
2019-03-22T07:38:39.000Z,27
2019-03-22T07:40:39.000Z,27
2019-03-22T07:41:39.000Z,27
2019-03-22T07:42:39.000Z,27
2019-03-22T07:43:39.000Z,27
2019-03-22T07:44:39.000Z,27
2019-03-22T07:45:39.000Z,27
2019-03-22T07:46:39.000Z,27
2019-03-22T07:47:39.000Z,27
2019-03-22T07:48:39.000Z,27
2019-03-22T07:49:39.000Z,27
2019-03-22T07:50:39.000Z,27
2019-03-22T07:51:39.000Z,27
2019-03-22T07:52:39.000Z,27
2019-03-22T07:53:39.000Z,27
2019-03-22T07:54:39.000Z,27
2019-03-22T07:55:39.000Z,27
2019-03-22T07:56:39.000Z,27
2019-03-22T07:57:39.000Z,27
2019-03-22T07:58:39.000Z,27
2019-03-22T07:59:39.000Z,27
2019-03-22T08:00:40.000Z,27
2019-03-22T08:01:40.000Z,27
2019-03-22T08:03:40.000Z,27
2019-03-22T08:04:40.000Z,27
2019-03-22T08:05:40.000Z,27
2019-03-22T08:06:40.000Z,27
2019-03-22T08:07:40.000Z,27
2019-03-22T08:08:40.000Z,27
2019-03-22T08:09:40.000Z,27
2019-03-22T08:10:40.000Z,27
2019-03-22T08:24:48.000Z,29
2019-03-22T08:25:48.000Z,29
2019-03-22T08:26:48.000Z,29
2019-03-22T08:27:48.000Z,29
2019-03-22T08:28:48.000Z,29
2019-03-22T08:29:48.000Z,29
2019-03-22T08:31:48.000Z,29
2019-03-22T08:32:48.000Z,29
2019-03-22T08:33:48.000Z,29
2019-03-22T08:34:48.000Z,29
2019-03-22T08:36:48.000Z,29
2019-03-22T08:37:48.000Z,29
2019-03-22T08:38:48.000Z,29
2019-03-22T08:39:48.000Z,29
2019-03-22T08:40:48.000Z,29
2019-03-22T08:41:48.000Z,29
2019-03-22T08:42:48.000Z,29
2019-03-22T08:43:48.000Z,29
2019-03-22T08:44:48.000Z,28
2019-03-22T08:45:48.000Z,28
2019-03-22T08:47:48.000Z,28
2019-03-22T08:49:48.000Z,28
2019-03-22T08:50:48.000Z,28
2019-03-22T08:52:48.000Z,28
2019-03-22T08:53:48.000Z,28
2019-03-22T08:54:48.000Z,28
2019-03-22T08:55:48.000Z,29
2019-03-22T08:56:48.000Z,29
2019-03-22T08:57:48.000Z,29
2019-03-22T08:58:48.000Z,29
2019-03-22T09:00:48.000Z,29
2019-03-22T09:01:48.000Z,29
2019-03-22T09:02:48.000Z,29
2019-03-22T09:03:48.000Z,29
2019-03-22T09:05:48.000Z,29
2019-03-22T09:06:48.000Z,29
2019-03-22T09:07:48.000Z,29
2019-03-22T09:08:48.000Z,29
2019-03-22T09:09:48.000Z,29
2019-03-22T09:10:48.000Z,29
2019-03-22T09:11:48.000Z,29
2019-03-22T09:12:48.000Z,29
2019-03-22T09:13:48.000Z,29
2019-03-22T09:14:48.000Z,29
2019-03-22T09:15:48.000Z,29
2019-03-22T09:17:48.000Z,29
2019-03-22T09:18:48.000Z,29
2019-03-22T09:20:48.000Z,29
2019-03-22T09:21:48.000Z,29
2019-03-22T09:22:48.000Z,29
2019-03-22T09:23:48.000Z,29
2019-03-22T09:24:48.000Z,29
2019-03-22T09:25:48.000Z,29
2019-03-22T09:26:48.000Z,29
2019-03-22T09:27:48.000Z,29
2019-03-22T09:28:48.000Z,29
2019-03-22T09:29:49.000Z,29
2019-03-22T09:30:49.000Z,29
2019-03-22T09:31:49.000Z,29
2019-03-22T09:32:49.000Z,29
2019-03-22T09:33:49.000Z,29
2019-03-22T09:35:49.000Z,29
2019-03-22T09:36:49.000Z,29
2019-03-22T09:38:48.000Z,29
2019-03-22T09:39:48.000Z,29
2019-03-22T09:40:48.000Z,29
2019-03-22T09:42:48.000Z,29
2019-03-22T09:43:48.000Z,29
2019-03-22T09:44:48.000Z,29
2019-03-22T09:45:48.000Z,29
2019-03-22T09:46:48.000Z,29
2019-03-22T09:47:48.000Z,28
2019-03-22T09:48:48.000Z,28
2019-03-22T09:49:48.000Z,28
2019-03-22T09:50:48.000Z,28
2019-03-22T09:51:48.000Z,28
2019-03-22T09:52:48.000Z,28
2019-03-22T09:54:48.000Z,28
2019-03-22T09:55:48.000Z,28
2019-03-22T09:56:48.000Z,28
2019-03-22T09:57:48.000Z,29
2019-03-22T09:58:48.000Z,28
2019-03-22T09:59:48.000Z,29
2019-03-22T10:00:48.000Z,29
2019-03-22T10:01:48.000Z,28
2019-03-22T10:02:48.000Z,28
2019-03-22T10:03:48.000Z,28
2019-03-22T10:04:48.000Z,28
2019-03-22T10:05:48.000Z,28
2019-03-22T10:07:48.000Z,28
2019-03-22T10:09:48.000Z,28
2019-03-22T10:10:48.000Z,28
2019-03-22T10:11:48.000Z,28
2019-03-22T10:12:48.000Z,28
2019-03-22T10:13:48.000Z,28
2019-03-22T10:14:48.000Z,28
2019-03-22T10:15:48.000Z,28
2019-03-22T10:16:48.000Z,28
2019-03-22T10:17:48.000Z,28
2019-03-22T10:19:48.000Z,28
2019-03-22T10:20:48.000Z,28
2019-03-22T10:21:48.000Z,28
2019-03-22T10:22:48.000Z,28
2019-03-22T10:23:48.000Z,28
2019-03-22T10:24:48.000Z,27
2019-03-22T10:26:48.000Z,27
2019-03-22T10:27:48.000Z,27
2019-03-22T10:28:48.000Z,27
2019-03-22T10:30:48.000Z,27
2019-03-22T10:31:48.000Z,27
2019-03-22T10:32:48.000Z,27
2019-03-22T10:33:48.000Z,27
2019-03-22T10:34:48.000Z,27
2019-03-22T10:35:48.000Z,27
2019-03-22T10:36:48.000Z,27
2019-03-22T10:38:48.000Z,27
2019-03-22T10:39:48.000Z,27
2019-03-22T10:40:48.000Z,26
2019-03-22T10:41:48.000Z,26
2019-03-22T10:42:48.000Z,27
2019-03-22T10:44:48.000Z,26
2019-03-22T10:45:48.000Z,26
2019-03-22T10:46:48.000Z,26
2019-03-22T10:47:48.000Z,26
2019-03-22T10:48:48.000Z,26
2019-03-22T10:49:48.000Z,26
2019-03-22T10:51:48.000Z,26
2019-03-22T11:03:06.000Z,26
2019-03-22T11:05:06.000Z,26
2019-03-22T11:06:06.000Z,26
2019-03-22T11:07:06.000Z,26
2019-03-22T11:08:06.000Z,26
2019-03-22T11:10:06.000Z,25
2019-03-22T11:11:06.000Z,25
2019-03-22T11:12:06.000Z,25
2019-03-22T11:13:06.000Z,25
2019-03-22T11:14:06.000Z,25
2019-03-22T11:15:06.000Z,25
2019-03-22T11:16:06.000Z,25
2019-03-22T11:17:06.000Z,25
2019-03-22T11:18:06.000Z,25
2019-03-22T11:19:06.000Z,25
2019-03-22T11:20:06.000Z,25
2019-03-22T11:21:06.000Z,25
2019-03-22T11:22:06.000Z,25
2019-03-22T11:23:06.000Z,25
2019-03-22T11:25:06.000Z,25
2019-03-22T11:26:06.000Z,25
2019-03-22T11:27:06.000Z,25
2019-03-22T11:28:06.000Z,25
2019-03-22T11:29:06.000Z,24
2019-03-22T11:30:06.000Z,24
2019-03-22T11:31:06.000Z,24
2019-03-22T11:32:06.000Z,24
2019-03-22T11:33:06.000Z,24
2019-03-22T11:34:06.000Z,24
2019-03-22T11:36:06.000Z,24
2019-03-22T11:37:06.000Z,24
2019-03-22T11:38:06.000Z,24
2019-03-22T11:40:06.000Z,24
2019-03-22T11:41:06.000Z,24
2019-03-22T11:42:06.000Z,24
2019-03-22T11:44:06.000Z,24
2019-03-22T11:45:06.000Z,24
2019-03-22T11:46:06.000Z,24
2019-03-22T11:47:06.000Z,24
2019-03-22T11:48:06.000Z,24
2019-03-22T11:50:06.000Z,24
2019-03-22T11:51:06.000Z,24
2019-03-22T11:52:06.000Z,24
2019-03-22T11:54:06.000Z,24
2019-03-22T11:55:06.000Z,24
2019-03-22T11:56:06.000Z,24
2019-03-22T11:58:06.000Z,24
2019-03-22T11:59:06.000Z,24
2019-03-22T12:00:06.000Z,25
2019-03-22T12:01:06.000Z,24
2019-03-22T12:02:06.000Z,25
2019-03-22T12:04:06.000Z,25
2019-03-22T12:05:06.000Z,25
2019-03-22T12:06:06.000Z,25
2019-03-22T12:07:06.000Z,24
2019-03-22T12:09:06.000Z,24
2019-03-22T12:10:06.000Z,25
2019-03-22T12:12:06.000Z,24
2019-03-22T12:13:06.000Z,25
2019-03-22T12:14:06.000Z,25
2019-03-22T12:16:06.000Z,25
2019-03-22T12:17:06.000Z,25
2019-03-22T12:18:06.000Z,25
2019-03-22T12:19:06.000Z,25
2019-03-22T12:20:06.000Z,25
2019-03-22T12:21:06.000Z,25
2019-03-22T12:22:06.000Z,25
2019-03-22T12:23:06.000Z,24
2019-03-22T12:24:06.000Z,25
2019-03-22T12:25:06.000Z,25
2019-03-22T12:26:06.000Z,25
2019-03-22T12:27:06.000Z,24
2019-03-22T12:29:06.000Z,24
2019-03-22T12:30:06.000Z,25
2019-03-22T12:31:06.000Z,24
2019-03-22T12:32:06.000Z,24
2019-03-22T12:33:06.000Z,24
2019-03-22T12:34:06.000Z,24
2019-03-22T12:35:06.000Z,25
2019-03-22T12:36:06.000Z,25
2019-03-22T12:37:06.000Z,24
2019-03-22T12:38:06.000Z,24
2019-03-22T12:39:06.000Z,24
2019-03-22T12:40:06.000Z,24
2019-03-22T12:41:06.000Z,24
2019-03-22T12:42:06.000Z,24
2019-03-22T12:43:06.000Z,24
2019-03-22T12:45:06.000Z,24
2019-03-22T12:46:06.000Z,24
2019-03-22T12:47:06.000Z,24
2019-03-22T12:49:06.000Z,24
2019-03-22T12:50:06.000Z,24
2019-03-22T12:51:06.000Z,25
2019-03-22T12:52:06.000Z,24
2019-03-22T12:53:06.000Z,24
2019-03-22T12:54:06.000Z,24
2019-03-22T12:55:06.000Z,24
2019-03-22T12:56:06.000Z,24
2019-03-22T12:58:06.000Z,24
2019-03-22T12:59:06.000Z,24
2019-03-22T13:00:06.000Z,24
2019-03-22T13:02:06.000Z,24
2019-03-22T13:03:06.000Z,24
2019-03-22T13:04:06.000Z,24
2019-03-22T13:05:06.000Z,24
2019-03-22T13:06:06.000Z,24
2019-03-22T13:07:06.000Z,24
2019-03-22T13:08:06.000Z,24
2019-03-22T13:09:06.000Z,24
2019-03-22T13:10:06.000Z,24
2019-03-22T13:11:06.000Z,24
2019-03-22T13:12:06.000Z,24
2019-03-22T13:14:06.000Z,24
2019-03-22T13:15:06.000Z,24
2019-03-22T13:16:06.000Z,24
2019-03-22T13:17:06.000Z,24
2019-03-22T13:18:06.000Z,24
2019-03-22T13:19:06.000Z,24
2019-03-22T13:20:06.000Z,24
2019-03-22T13:21:06.000Z,24
2019-03-22T13:22:06.000Z,24
2019-03-22T13:24:06.000Z,24
2019-03-22T13:25:06.000Z,24
2019-03-22T13:26:06.000Z,24
2019-03-22T13:28:06.000Z,24
2019-03-22T13:29:06.000Z,24
2019-03-22T13:30:06.000Z,24
2019-03-22T13:31:06.000Z,24
2019-03-22T13:32:06.000Z,24
2019-03-22T13:33:06.000Z,24
2019-03-22T13:35:06.000Z,24
2019-03-22T13:36:06.000Z,24
2019-03-22T13:37:06.000Z,24
2019-03-22T13:38:06.000Z,24
2019-03-22T13:39:06.000Z,24
2019-03-22T13:40:06.000Z,24
2019-03-22T13:41:06.000Z,24
2019-03-22T13:42:06.000Z,24
2019-03-22T13:43:06.000Z,24
2019-03-22T13:45:06.000Z,24
2019-03-22T13:46:06.000Z,24
2019-03-22T13:47:06.000Z,24
2019-03-22T13:48:06.000Z,24
2019-03-22T13:49:06.000Z,24
2019-03-22T13:50:06.000Z,23
2019-03-22T13:52:06.000Z,22
2019-03-22T13:53:06.000Z,22
2019-03-22T13:54:06.000Z,21
2019-03-22T13:55:06.000Z,20
2019-03-22T13:56:06.000Z,20
2019-03-22T13:57:06.000Z,20
2019-03-22T13:58:06.000Z,19
2019-03-22T13:59:06.000Z,19
2019-03-22T14:00:06.000Z,19
2019-03-22T14:01:06.000Z,19
2019-03-22T14:03:06.000Z,20
2019-03-22T14:04:06.000Z,20
2019-03-22T14:06:06.000Z,21
2019-03-22T14:07:06.000Z,21
2019-03-22T14:08:06.000Z,21
2019-03-22T14:09:06.000Z,21
2019-03-22T14:10:06.000Z,21
2019-03-22T14:11:06.000Z,21
2019-03-22T14:12:06.000Z,21
2019-03-22T14:13:06.000Z,21
2019-03-22T14:14:06.000Z,21
2019-03-22T14:16:07.000Z,22
2019-03-22T14:17:07.000Z,22
2019-03-22T14:18:07.000Z,22
2019-03-22T14:19:07.000Z,22
2019-03-22T14:20:07.000Z,22
2019-03-22T14:21:07.000Z,22
2019-03-22T14:22:07.000Z,22
2019-03-22T14:24:07.000Z,22
2019-03-22T14:25:07.000Z,22
2019-03-22T14:26:07.000Z,22
2019-03-22T14:27:07.000Z,22
2019-03-22T14:28:07.000Z,22
2019-03-22T14:29:07.000Z,22
2019-03-22T14:30:07.000Z,22
2019-03-22T14:31:07.000Z,22
2019-03-22T14:32:07.000Z,22
2019-03-22T14:34:07.000Z,22
2019-03-22T14:35:07.000Z,23
2019-03-22T14:36:07.000Z,23
2019-03-22T14:37:07.000Z,23
2019-03-22T14:38:07.000Z,23
2019-03-22T14:39:07.000Z,23
2019-03-22T14:40:07.000Z,23
2019-03-22T14:41:07.000Z,23
2019-03-22T14:42:07.000Z,23
2019-03-22T14:43:07.000Z,23
2019-03-22T14:45:07.000Z,23
2019-03-22T14:46:07.000Z,23
2019-03-22T14:47:07.000Z,23
2019-03-22T14:48:07.000Z,23
2019-03-22T14:49:07.000Z,23
2019-03-22T14:50:07.000Z,23
2019-03-22T14:51:07.000Z,23
2019-03-22T14:52:07.000Z,23
2019-03-22T14:53:07.000Z,23
2019-03-22T14:54:07.000Z,23
2019-03-22T14:55:07.000Z,23
2019-03-22T14:56:07.000Z,23
2019-03-22T14:57:07.000Z,23
2019-03-22T14:58:07.000Z,23
2019-03-22T15:00:07.000Z,23
2019-03-22T15:01:07.000Z,23
2019-03-22T15:02:07.000Z,23
2019-03-22T15:03:07.000Z,23
2019-03-22T15:04:07.000Z,23
2019-03-22T15:05:07.000Z,23
2019-03-22T15:06:07.000Z,23
2019-03-22T15:07:07.000Z,23
2019-03-22T15:08:07.000Z,23
2019-03-22T15:09:07.000Z,23
2019-03-22T15:10:07.000Z,24
2019-03-22T15:11:07.000Z,23
2019-03-22T15:12:07.000Z,24
2019-03-22T15:13:07.000Z,23
2019-03-22T15:15:07.000Z,23
2019-03-22T15:16:07.000Z,24
2019-03-22T15:18:07.000Z,23
2019-03-22T15:19:06.000Z,24
2019-03-22T15:20:06.000Z,24
2019-03-22T15:21:06.000Z,24
2019-03-22T15:22:06.000Z,24
2019-03-22T15:23:06.000Z,24
2019-03-22T15:24:06.000Z,24
2019-03-22T15:25:06.000Z,24
2019-03-22T15:26:06.000Z,24
2019-03-22T15:27:06.000Z,24
2019-03-22T15:28:06.000Z,24
2019-03-22T15:29:06.000Z,24
2019-03-22T15:30:06.000Z,24
2019-03-22T15:31:06.000Z,24
2019-03-22T15:32:06.000Z,24
2019-03-22T15:34:06.000Z,24
2019-03-22T15:35:06.000Z,24
2019-03-22T15:36:06.000Z,24
2019-03-22T15:37:06.000Z,24
2019-03-22T15:38:06.000Z,24
2019-03-22T15:39:06.000Z,24
2019-03-22T15:40:06.000Z,24
2019-03-22T15:41:06.000Z,24
2019-03-22T15:42:06.000Z,24
2019-03-22T15:43:06.000Z,24
2019-03-22T15:45:06.000Z,24
2019-03-22T15:46:06.000Z,24
2019-03-22T15:47:06.000Z,24
2019-03-22T15:48:06.000Z,24
2019-03-22T15:50:06.000Z,24
2019-03-22T15:51:06.000Z,24
2019-03-22T15:52:06.000Z,24
2019-03-22T15:53:06.000Z,24
2019-03-22T15:54:06.000Z,24
2019-03-22T15:55:06.000Z,24
2019-03-22T15:56:06.000Z,24
2019-03-22T15:57:06.000Z,24
2019-03-22T15:59:06.000Z,24
2019-03-22T16:00:06.000Z,24
2019-03-22T16:01:06.000Z,24
2019-03-22T16:02:06.000Z,24
2019-03-22T16:03:06.000Z,24
2019-03-22T16:04:06.000Z,24
2019-03-22T16:05:06.000Z,24
2019-03-22T16:07:06.000Z,24
2019-03-22T16:08:06.000Z,24
2019-03-22T16:09:06.000Z,24
2019-03-22T16:10:06.000Z,24
2019-03-22T16:12:06.000Z,24
2019-03-22T16:13:06.000Z,24
2019-03-22T16:14:06.000Z,24
2019-03-22T16:15:06.000Z,24
2019-03-22T16:16:06.000Z,24
2019-03-22T16:17:06.000Z,24
2019-03-22T16:18:06.000Z,24
2019-03-22T16:19:06.000Z,24
2019-03-22T16:20:06.000Z,24
2019-03-22T16:21:06.000Z,24
2019-03-22T16:22:06.000Z,24
2019-03-22T16:23:07.000Z,24
2019-03-22T16:24:07.000Z,24
2019-03-22T16:25:07.000Z,24
2019-03-22T16:26:07.000Z,24
2019-03-22T16:27:07.000Z,24
2019-03-22T16:28:07.000Z,24
2019-03-22T16:30:07.000Z,24
2019-03-22T16:31:07.000Z,24
2019-03-22T16:32:07.000Z,24
2019-03-22T16:33:07.000Z,24
2019-03-22T16:34:07.000Z,24
2019-03-22T16:35:07.000Z,24
2019-03-22T16:36:07.000Z,24